Hlavní strana
METAR-TAF:

METAR-TAF

Letiště :

Flores, Azory, Portugalsko

zeměpisná šířka: 39-27N, zeměpisná délka: 031-08W, výška: 28 m

Aktuální stav počasí

Zpráva byla vytvořena před 7 hodinami a 36 minutami, v 18:00 UTC
Východojihovýchodní vítr 4 kt, proměnlivý mezi východoseverovýchodním a jižním
Teplota 15°C
Vlhkost vzduchu 67%
Tlak 1008 hPa
Viditelnost 10 km a více
Skoro jasno ve výšce 1800 ft
Oblačno až skoro zataženo ve výšce 3400 ft

METAR: LPFL 051800Z 12004KT 060V170 9999 FEW018 BKN034 15/09 Q1008

Čas: 01:36 (01:36 UTC)


TAF: chybějící

Stav a předpovědi počasí z více než 4 000 letišť (zprávy METAR a TAF).

Červené a žluté tečky na mapě představují dostupné meteorologické stanice.

Když kurzor umístíte na tečku, zobrazí se název stanice.

Pak kliknutím zobrazíte stav a předpověď počasí.

Chcete-li změnit mapu, kliknutím na zelené tlačítko se znaménkem +mapu přiblížíte, kliknutím na zelené tlačítko se znaménkem – mapu oddálíte a kliknutím na zelené šipky přejdete na sousední mapy.


METAR-TAF: